Terminal Aerodrome Forecast
Issued by NWS Burlington, VT

Current Version | Previous Version | Text Only | Print | Product List | Glossary On
Versions: 1 2 3 4 5 6 7 8 9 10 11 12 13
000
FTUS41 KBTV 240523
TAFBTV
TAF
KBTV 240523Z 2406/2506 18010G18KT P6SM BKN120
     FM241200 22012G20KT P6SM BKN120
     FM241600 25015G28KT P6SM SCT120
     FM250000 20009KT P6SM SKC=

USA.gov is the U.S. government's official web portal to all federal, state and local government web resources and services.